DLH4VV LSZH-EDDM
Flight info
| Callsign | DLH4VV |
|---|---|
| Flight time | 0h 36m |
| Altitude | 22000 |
| Route | DEGES Z6 NUNRI/N0384F210 T103 BETOS BETOS1B |
| Aircraft | A321/M-SDE3FGHIRWY/LB1 |
Departure
| Time | 2026-05-05 18:33 |
|---|---|
| Airport | Zürich Airport (LSZH) |
Arrival
| Time | 2026-05-05 19:10 |
|---|---|
| Airport | Munich Airport (EDDM) |
| Time | Latitude | Longitude | Altitude | Speed | Heading |
|---|---|---|---|---|---|
| 2026-05-05 17:59 | 47.45586 | 8.55685 | 1407 ft | 0 kts | 6° |
| 2026-05-05 18:15 | 47.45585 | 8.55685 | 1407 ft | 0 kts | 6° |
| 2026-05-05 18:21 | 47.45590 | 8.55686 | 1413 ft | 3 kts | 6° |
| 2026-05-05 18:21 | 47.45640 | 8.55706 | 1410 ft | 9 kts | 51° |
| 2026-05-05 18:22 | 47.45643 | 8.55794 | 1407 ft | 8 kts | 93° |
| 2026-05-05 18:22 | 47.45636 | 8.55881 | 1410 ft | 10 kts | 98° |
| 2026-05-05 18:22 | 47.45625 | 8.56024 | 1410 ft | 18 kts | 96° |
| 2026-05-05 18:22 | 47.45612 | 8.56226 | 1412 ft | 20 kts | 96° |
| 2026-05-05 18:23 | 47.45597 | 8.56432 | 1414 ft | 20 kts | 96° |
| 2026-05-05 18:23 | 47.45584 | 8.56629 | 1419 ft | 17 kts | 96° |
| 2026-05-05 18:23 | 47.45573 | 8.56786 | 1422 ft | 13 kts | 96° |
| 2026-05-05 18:23 | 47.45567 | 8.56865 | 1420 ft | 7 kts | 96° |
| 2026-05-05 18:24 | 47.45564 | 8.56908 | 1420 ft | 0 kts | 96° |
| 2026-05-05 18:30 | 47.45563 | 8.56913 | 1420 ft | 3 kts | 96° |
| 2026-05-05 18:30 | 47.45580 | 8.57002 | 1422 ft | 14 kts | 45° |
| 2026-05-05 18:31 | 47.45660 | 8.56991 | 1424 ft | 12 kts | 295° |
| 2026-05-05 18:31 | 47.45667 | 8.56944 | 1424 ft | 0 kts | 277° |
| 2026-05-05 18:32 | 47.45668 | 8.56930 | 1424 ft | 6 kts | 277° |
| 2026-05-05 18:32 | 47.45698 | 8.56507 | 1417 ft | 80 kts | 276° |
| 2026-05-05 18:33 | 47.45779 | 8.55343 | 1407 ft | 145 kts | 276° |
| 2026-05-05 18:33 | 47.45889 | 8.53622 | 1683 ft | 170 kts | 274° |
| 2026-05-05 18:33 | 47.45994 | 8.51932 | 2523 ft | 168 kts | 274° |
| 2026-05-05 18:33 | 47.46113 | 8.50168 | 3078 ft | 176 kts | 274° |
| 2026-05-05 18:34 | 47.46181 | 8.48287 | 3297 ft | 197 kts | 260° |
| 2026-05-05 18:34 | 47.45589 | 8.46406 | 3667 ft | 207 kts | 240° |
| 2026-05-05 18:34 | 47.44869 | 8.44538 | 4297 ft | 210 kts | 242° |
| 2026-05-05 18:34 | 47.44161 | 8.42630 | 4785 ft | 212 kts | 243° |
| 2026-05-05 18:35 | 47.43473 | 8.40715 | 4886 ft | 210 kts | 243° |
| 2026-05-05 18:35 | 47.42785 | 8.38816 | 4899 ft | 209 kts | 238° |
| 2026-05-05 18:35 | 47.41719 | 8.37374 | 4898 ft | 213 kts | 208° |
| 2026-05-05 18:35 | 47.40260 | 8.36930 | 4906 ft | 221 kts | 178° |
| 2026-05-05 18:36 | 47.38802 | 8.37747 | 5016 ft | 235 kts | 143° |
| 2026-05-05 18:36 | 47.37854 | 8.39737 | 5689 ft | 245 kts | 109° |
| 2026-05-05 18:36 | 47.37827 | 8.42256 | 6379 ft | 253 kts | 70° |
| 2026-05-05 18:36 | 47.38782 | 8.44414 | 7016 ft | 254 kts | 44° |
| 2026-05-05 18:37 | 47.40027 | 8.46278 | 7702 ft | 256 kts | 43° |
| 2026-05-05 18:37 | 47.41178 | 8.48399 | 8047 ft | 278 kts | 65° |
| 2026-05-05 18:37 | 47.41598 | 8.51254 | 8309 ft | 295 kts | 92° |
| 2026-05-05 18:37 | 47.41580 | 8.54325 | 8883 ft | 302 kts | 93° |
| 2026-05-05 18:38 | 47.41557 | 8.57448 | 9614 ft | 305 kts | 93° |
| 2026-05-05 18:38 | 47.41537 | 8.60619 | 10117 ft | 317 kts | 93° |
| 2026-05-05 18:38 | 47.41518 | 8.63997 | 10255 ft | 340 kts | 93° |
| 2026-05-05 18:38 | 47.41501 | 8.67597 | 10382 ft | 361 kts | 92° |
| 2026-05-05 18:39 | 47.41489 | 8.71359 | 10824 ft | 370 kts | 92° |
| 2026-05-05 18:39 | 47.41484 | 8.75185 | 11404 ft | 375 kts | 92° |
| 2026-05-05 18:39 | 47.41473 | 8.79042 | 11769 ft | 375 kts | 92° |
| 2026-05-05 18:39 | 47.41459 | 8.82887 | 11883 ft | 375 kts | 92° |
| 2026-05-05 18:40 | 47.41441 | 8.86758 | 12421 ft | 378 kts | 92° |
| 2026-05-05 18:40 | 47.41422 | 8.90650 | 13063 ft | 381 kts | 92° |
| 2026-05-05 18:40 | 47.41402 | 8.94583 | 13635 ft | 386 kts | 92° |
| 2026-05-05 18:40 | 47.41384 | 8.98561 | 14166 ft | 389 kts | 92° |
| 2026-05-05 18:41 | 47.41365 | 9.02571 | 14720 ft | 392 kts | 92° |
| 2026-05-05 18:41 | 47.41342 | 9.06602 | 15281 ft | 394 kts | 92° |
| 2026-05-05 18:41 | 47.41317 | 9.10661 | 15843 ft | 396 kts | 92° |
| 2026-05-05 18:41 | 47.41302 | 9.14742 | 16392 ft | 399 kts | 90° |
| 2026-05-05 18:42 | 47.41624 | 9.18834 | 16916 ft | 404 kts | 79° |
| 2026-05-05 18:42 | 47.42444 | 9.22823 | 17446 ft | 408 kts | 68° |
| 2026-05-05 18:42 | 47.43733 | 9.26578 | 17971 ft | 412 kts | 60° |
| 2026-05-05 18:42 | 47.45169 | 9.30250 | 18434 ft | 414 kts | 60° |
| 2026-05-05 18:43 | 47.46608 | 9.33947 | 18874 ft | 416 kts | 61° |
| 2026-05-05 18:43 | 47.48055 | 9.37673 | 19311 ft | 419 kts | 61° |
| 2026-05-05 18:43 | 47.49507 | 9.41423 | 19753 ft | 421 kts | 61° |
| 2026-05-05 18:43 | 47.50967 | 9.45208 | 20080 ft | 428 kts | 61° |
| 2026-05-05 18:44 | 47.52457 | 9.49078 | 20218 ft | 438 kts | 61° |
| 2026-05-05 18:44 | 47.53970 | 9.53024 | 20514 ft | 443 kts | 61° |
| 2026-05-05 18:44 | 47.55505 | 9.57029 | 20691 ft | 452 kts | 61° |
| 2026-05-05 18:44 | 47.56991 | 9.61174 | 20846 ft | 459 kts | 68° |
| 2026-05-05 18:45 | 47.58019 | 9.65689 | 20899 ft | 468 kts | 75° |
| 2026-05-05 18:45 | 47.58949 | 9.70284 | 20888 ft | 476 kts | 75° |
| 2026-05-05 18:45 | 47.59909 | 9.74990 | 20893 ft | 478 kts | 75° |
| 2026-05-05 18:45 | 47.60878 | 9.79742 | 20885 ft | 483 kts | 75° |
| 2026-05-05 18:46 | 47.61843 | 9.84507 | 20884 ft | 483 kts | 75° |
| 2026-05-05 18:46 | 47.62802 | 9.89284 | 20879 ft | 484 kts | 75° |
| 2026-05-05 18:46 | 47.63758 | 9.94072 | 20878 ft | 484 kts | 75° |
| 2026-05-05 18:46 | 47.64709 | 9.98852 | 20875 ft | 484 kts | 75° |
| 2026-05-05 18:47 | 47.65657 | 10.03642 | 20872 ft | 484 kts | 75° |
| 2026-05-05 18:47 | 47.66603 | 10.08426 | 20873 ft | 484 kts | 75° |
| 2026-05-05 18:47 | 47.67550 | 10.13217 | 20861 ft | 484 kts | 75° |
| 2026-05-05 18:47 | 47.68498 | 10.18018 | 20865 ft | 486 kts | 75° |
| 2026-05-05 18:48 | 47.69450 | 10.22837 | 20863 ft | 486 kts | 75° |
| 2026-05-05 18:48 | 47.70383 | 10.27571 | 20745 ft | 468 kts | 75° |
| 2026-05-05 18:48 | 47.71278 | 10.32121 | 20486 ft | 451 kts | 75° |
| 2026-05-05 18:48 | 47.72137 | 10.36507 | 20234 ft | 434 kts | 75° |
| 2026-05-05 18:49 | 47.72964 | 10.40750 | 19989 ft | 422 kts | 76° |
| 2026-05-05 18:49 | 47.73772 | 10.44910 | 19737 ft | 417 kts | 76° |
| 2026-05-05 18:49 | 47.74571 | 10.49045 | 19431 ft | 415 kts | 76° |
| 2026-05-05 18:49 | 47.75362 | 10.53144 | 19104 ft | 411 kts | 75° |
| 2026-05-05 18:50 | 47.76146 | 10.57213 | 18773 ft | 409 kts | 75° |
| 2026-05-05 18:50 | 47.76926 | 10.61269 | 18421 ft | 407 kts | 76° |
| 2026-05-05 18:50 | 47.77702 | 10.65310 | 18092 ft | 406 kts | 76° |
| 2026-05-05 18:50 | 47.78472 | 10.69330 | 17708 ft | 404 kts | 76° |
| 2026-05-05 18:51 | 47.79241 | 10.73334 | 17332 ft | 401 kts | 75° |
| 2026-05-05 18:51 | 47.80005 | 10.77312 | 16968 ft | 399 kts | 76° |
| 2026-05-05 18:51 | 47.80763 | 10.81276 | 16601 ft | 397 kts | 76° |
| 2026-05-05 18:51 | 47.81514 | 10.85217 | 16232 ft | 395 kts | 76° |
| 2026-05-05 18:52 | 47.82258 | 10.89136 | 15919 ft | 393 kts | 76° |
| 2026-05-05 18:52 | 47.82996 | 10.93043 | 15749 ft | 392 kts | 76° |
| 2026-05-05 18:52 | 47.83730 | 10.96938 | 15567 ft | 391 kts | 76° |
| 2026-05-05 18:52 | 47.84494 | 11.00813 | 15397 ft | 390 kts | 71° |
| 2026-05-05 18:53 | 47.85781 | 11.04356 | 15201 ft | 390 kts | 53° |
| 2026-05-05 18:53 | 47.87502 | 11.07472 | 15004 ft | 389 kts | 50° |
| 2026-05-05 18:53 | 47.89232 | 11.10553 | 14714 ft | 387 kts | 50° |
| 2026-05-05 18:53 | 47.90955 | 11.13618 | 14432 ft | 385 kts | 50° |
| 2026-05-05 18:54 | 47.92650 | 11.16631 | 14170 ft | 384 kts | 50° |
| 2026-05-05 18:54 | 47.94383 | 11.19723 | 13896 ft | 383 kts | 50° |
| 2026-05-05 18:54 | 47.96081 | 11.22764 | 13552 ft | 381 kts | 50° |
| 2026-05-05 18:54 | 47.97770 | 11.25792 | 13161 ft | 379 kts | 50° |
| 2026-05-05 18:55 | 47.99425 | 11.28767 | 12790 ft | 376 kts | 50° |
| 2026-05-05 18:55 | 48.01093 | 11.31767 | 12432 ft | 374 kts | 50° |
| 2026-05-05 18:55 | 48.02753 | 11.34752 | 12071 ft | 372 kts | 50° |
| 2026-05-05 18:55 | 48.04402 | 11.37714 | 11702 ft | 370 kts | 50° |
| 2026-05-05 18:56 | 48.06043 | 11.40661 | 11363 ft | 368 kts | 50° |
| 2026-05-05 18:56 | 48.07674 | 11.43593 | 11012 ft | 366 kts | 50° |
| 2026-05-05 18:56 | 48.09295 | 11.46510 | 10579 ft | 362 kts | 50° |
| 2026-05-05 18:56 | 48.10886 | 11.49378 | 10143 ft | 355 kts | 50° |
| 2026-05-05 18:57 | 48.12446 | 11.52196 | 9710 ft | 349 kts | 50° |
| 2026-05-05 18:57 | 48.13977 | 11.54969 | 9245 ft | 343 kts | 50° |
| 2026-05-05 18:57 | 48.15478 | 11.57692 | 8876 ft | 335 kts | 50° |
| 2026-05-05 18:57 | 48.16473 | 11.59499 | 8636 ft | 330 kts | 50° |
| 2026-05-05 18:58 | 48.17919 | 11.62126 | 8276 ft | 323 kts | 50° |
| 2026-05-05 18:58 | 48.19333 | 11.64703 | 7926 ft | 317 kts | 50° |
| 2026-05-05 18:58 | 48.20706 | 11.67210 | 7822 ft | 306 kts | 50° |
| 2026-05-05 18:58 | 48.22059 | 11.69680 | 7839 ft | 307 kts | 50° |
| 2026-05-05 18:59 | 48.23411 | 11.72147 | 7838 ft | 306 kts | 50° |
| 2026-05-05 18:59 | 48.24584 | 11.74802 | 7838 ft | 306 kts | 67° |
| 2026-05-05 18:59 | 48.25091 | 11.77842 | 7841 ft | 305 kts | 83° |
| 2026-05-05 18:59 | 48.25363 | 11.81007 | 7728 ft | 307 kts | 83° |
| 2026-05-05 19:00 | 48.25626 | 11.84167 | 7428 ft | 304 kts | 84° |
| 2026-05-05 19:00 | 48.25881 | 11.87307 | 7161 ft | 303 kts | 83° |
| 2026-05-05 19:00 | 48.26136 | 11.90435 | 6963 ft | 301 kts | 83° |
| 2026-05-05 19:00 | 48.26395 | 11.93549 | 6768 ft | 301 kts | 83° |
| 2026-05-05 19:01 | 48.26656 | 11.96662 | 6577 ft | 300 kts | 83° |
| 2026-05-05 19:01 | 48.26914 | 11.99763 | 6385 ft | 299 kts | 83° |
| 2026-05-05 19:01 | 48.27173 | 12.02861 | 6191 ft | 299 kts | 83° |
| 2026-05-05 19:01 | 48.27432 | 12.05954 | 5987 ft | 298 kts | 83° |
| 2026-05-05 19:02 | 48.27689 | 12.09041 | 5781 ft | 298 kts | 83° |
| 2026-05-05 19:02 | 48.27943 | 12.12127 | 5580 ft | 298 kts | 83° |
| 2026-05-05 19:02 | 48.28243 | 12.15196 | 5379 ft | 296 kts | 74° |
| 2026-05-05 19:02 | 48.29165 | 12.17903 | 5178 ft | 292 kts | 46° |
| 2026-05-05 19:03 | 48.30760 | 12.19683 | 5032 ft | 284 kts | 19° |
| 2026-05-05 19:03 | 48.32666 | 12.20206 | 5001 ft | 280 kts | 358° |
| 2026-05-05 19:03 | 48.34592 | 12.20147 | 4999 ft | 271 kts | 354° |
| 2026-05-05 19:03 | 48.36467 | 12.20034 | 5003 ft | 269 kts | 354° |
| 2026-05-05 19:04 | 48.38332 | 12.19913 | 5004 ft | 268 kts | 355° |
| 2026-05-05 19:04 | 48.40171 | 12.19587 | 5002 ft | 265 kts | 339° |
| 2026-05-05 19:04 | 48.41706 | 12.18163 | 5005 ft | 259 kts | 311° |
| 2026-05-05 19:04 | 48.42567 | 12.15827 | 5013 ft | 259 kts | 283° |
| 2026-05-05 19:05 | 48.42602 | 12.13154 | 4901 ft | 256 kts | 257° |
| 2026-05-05 19:05 | 48.41788 | 12.10804 | 4778 ft | 252 kts | 236° |
| 2026-05-05 19:05 | 48.40769 | 12.08712 | 4623 ft | 243 kts | 236° |
| 2026-05-05 19:05 | 48.39784 | 12.06704 | 4459 ft | 234 kts | 237° |
| 2026-05-05 19:06 | 48.38848 | 12.04754 | 4215 ft | 224 kts | 241° |
| 2026-05-05 19:06 | 48.38309 | 12.02653 | 4033 ft | 208 kts | 259° |
| 2026-05-05 19:06 | 48.38085 | 12.00591 | 3861 ft | 193 kts | 264° |
| 2026-05-05 19:06 | 48.37932 | 11.98644 | 3624 ft | 182 kts | 265° |
| 2026-05-05 19:07 | 48.37795 | 11.96829 | 3399 ft | 167 kts | 265° |
| 2026-05-05 19:07 | 48.37671 | 11.95168 | 3209 ft | 153 kts | 265° |
| 2026-05-05 19:07 | 48.37555 | 11.93617 | 3002 ft | 147 kts | 266° |
| 2026-05-05 19:07 | 48.37441 | 11.92100 | 2803 ft | 145 kts | 266° |
| 2026-05-05 19:08 | 48.37328 | 11.90595 | 2605 ft | 145 kts | 266° |
| 2026-05-05 19:08 | 48.37214 | 11.89079 | 2415 ft | 147 kts | 265° |
| 2026-05-05 19:08 | 48.37098 | 11.87538 | 2209 ft | 150 kts | 264° |
| 2026-05-05 19:08 | 48.36979 | 11.85965 | 2003 ft | 153 kts | 264° |
| 2026-05-05 19:09 | 48.36858 | 11.84374 | 1805 ft | 152 kts | 265° |
| 2026-05-05 19:09 | 48.36740 | 11.82819 | 1613 ft | 148 kts | 264° |
| 2026-05-05 19:09 | 48.36626 | 11.81328 | 1479 ft | 135 kts | 263° |
| 2026-05-05 19:09 | 48.36537 | 11.80165 | 1473 ft | 87 kts | 263° |
| 2026-05-05 19:10 | 48.36487 | 11.79498 | 1485 ft | 50 kts | 263° |
| 2026-05-05 19:10 | 48.36436 | 11.79016 | 1474 ft | 42 kts | 248° |
| 2026-05-05 19:10 | 48.36346 | 11.78796 | 1478 ft | 0 kts | 232° |
| 2026-05-05 19:11 | 48.36325 | 11.78755 | 1476 ft | 10 kts | 232° |
| 2026-05-05 19:11 | 48.36262 | 11.78630 | 1480 ft | 18 kts | 233° |
| 2026-05-05 19:11 | 48.36181 | 11.78479 | 1482 ft | 17 kts | 211° |
| 2026-05-05 19:11 | 48.36082 | 11.78494 | 1485 ft | 15 kts | 179° |
| 2026-05-05 19:12 | 48.36038 | 11.78602 | 1480 ft | 15 kts | 83° |
| 2026-05-05 19:12 | 48.36050 | 11.78761 | 1479 ft | 16 kts | 84° |
| 2026-05-05 19:12 | 48.36063 | 11.78936 | 1473 ft | 17 kts | 83° |
| 2026-05-05 19:12 | 48.36079 | 11.79124 | 1475 ft | 19 kts | 83° |
| 2026-05-05 19:13 | 48.36086 | 11.79268 | 1482 ft | 14 kts | 99° |
| 2026-05-05 19:13 | 48.36037 | 11.79324 | 1480 ft | 6 kts | 166° |
| 2026-05-05 19:13 | 48.35997 | 11.79333 | 1479 ft | 4 kts | 173° |
| 2026-05-05 19:13 | 48.35979 | 11.79336 | 1486 ft | 1 kts | 173° |
| 2026-05-05 19:14 | 48.35962 | 11.79339 | 1475 ft | 3 kts | 173° |
| 2026-05-05 19:14 | 48.35925 | 11.79355 | 1475 ft | 9 kts | 152° |
| 2026-05-05 19:14 | 48.35895 | 11.79438 | 1483 ft | 10 kts | 107° |
| 2026-05-05 19:14 | 48.35857 | 11.79525 | 1473 ft | 10 kts | 159° |
| 2026-05-05 19:15 | 48.35780 | 11.79534 | 1474 ft | 12 kts | 175° |
| 2026-05-05 19:15 | 48.35714 | 11.79542 | 1473 ft | 9 kts | 175° |
| 2026-05-05 19:15 | 48.35658 | 11.79551 | 1480 ft | 4 kts | 171° |
| 2026-05-05 19:15 | 48.35647 | 11.79586 | 1485 ft | 5 kts | 92° |
| 2026-05-05 19:16 | 48.35652 | 11.79650 | 1485 ft | 7 kts | 82° |
| 2026-05-05 19:16 | 48.35656 | 11.79700 | 1482 ft | 0 kts | 83° |